createdAt,value
2022-12-28T00:00:41.474Z,4.16
2022-12-28T00:04:43.056Z,4.16
2022-12-28T00:08:44.990Z,4.17
2022-12-28T00:12:46.513Z,4.24
2022-12-28T00:16:48.088Z,4.25
2022-12-28T00:21:00.304Z,4.26
2022-12-28T00:25:01.947Z,4.26
2022-12-28T00:29:05.502Z,4.26
2022-12-28T00:33:07.508Z,4.25
2022-12-28T00:37:12.962Z,4.28
2022-12-28T00:41:14.924Z,4.31
2022-12-28T00:45:17.785Z,4.32
2022-12-28T00:49:19.381Z,4.36
2022-12-28T00:53:21.014Z,4.39
2022-12-28T00:57:22.603Z,4.42
2022-12-28T01:01:27.218Z,4.44
2022-12-28T01:05:29.037Z,4.46
2022-12-28T01:09:30.571Z,4.47
2022-12-28T01:13:32.221Z,4.49
2022-12-28T01:17:33.798Z,4.51
2022-12-28T01:21:36.911Z,4.56
2022-12-28T01:25:38.467Z,4.64
2022-12-28T01:29:40.302Z,4.67
2022-12-28T01:33:42.900Z,4.72
2022-12-28T01:37:44.453Z,4.74
2022-12-28T01:41:46.630Z,4.79
2022-12-28T01:45:52.810Z,4.83
2022-12-28T01:50:05.544Z,4.84
2022-12-28T01:54:07.114Z,4.84
2022-12-28T01:58:13.867Z,4.86
2022-12-28T02:02:16.639Z,4.86
2022-12-28T02:06:18.402Z,4.86
2022-12-28T02:10:41.029Z,4.87
2022-12-28T02:14:44.377Z,4.86
2022-12-28T02:18:47.420Z,4.87
2022-12-28T02:23:08.786Z,4.87
2022-12-28T02:27:23.884Z,4.91
2022-12-28T02:31:40.509Z,4.94
2022-12-28T02:35:51.644Z,4.96
2022-12-28T02:39:59.949Z,4.99
2022-12-28T02:44:01.985Z,5.01
2022-12-28T02:48:26.858Z,5.02
2022-12-28T02:52:48.311Z,5.02
2022-12-28T02:57:08.957Z,5.04
2022-12-28T03:01:35.456Z,5.04
2022-12-28T03:06:06.801Z,5.05
2022-12-28T03:10:18.627Z,5.08
2022-12-28T03:14:26.502Z,5.09
2022-12-28T03:18:48.880Z,5.08
2022-12-28T03:23:10.354Z,5.08
2022-12-28T03:27:34.284Z,5.11
2022-12-28T03:31:37.355Z,5.11
2022-12-28T03:36:01.514Z,5.14
2022-12-28T03:40:17.305Z,5.15
2022-12-28T03:44:26.705Z,5.17
2022-12-28T03:48:31.614Z,5.20
2022-12-28T03:52:33.444Z,5.20
2022-12-28T03:56:45.913Z,5.24
2022-12-28T04:00:47.479Z,5.27
2022-12-28T04:04:49.453Z,5.30
2022-12-28T04:08:51.165Z,5.33
2022-12-28T04:12:56.805Z,5.35
2022-12-28T04:17:06.887Z,5.37
2022-12-28T04:21:09.508Z,5.42
2022-12-28T04:25:13.273Z,5.44
2022-12-28T04:29:15.179Z,5.47
2022-12-28T04:33:37.600Z,5.47
2022-12-28T04:37:39.175Z,5.48
2022-12-28T04:41:41.043Z,5.48
2022-12-28T04:45:42.596Z,5.48
2022-12-28T04:49:44.137Z,5.48
2022-12-28T04:53:45.778Z,5.51
2022-12-28T04:57:47.575Z,5.49
2022-12-28T05:01:49.242Z,5.52
2022-12-28T05:05:50.840Z,5.56
2022-12-28T05:09:52.464Z,5.58
2022-12-28T05:13:54.158Z,5.60
2022-12-28T05:17:56.253Z,5.63
2022-12-28T05:21:57.887Z,5.67
2022-12-28T05:25:59.519Z,5.69
2022-12-28T05:30:01.076Z,5.73
2022-12-28T05:34:02.802Z,5.73
2022-12-28T05:38:04.574Z,5.75
2022-12-28T05:42:06.119Z,5.77
2022-12-28T05:46:11.450Z,5.78
2022-12-28T05:50:13.019Z,5.78
2022-12-28T05:54:14.620Z,5.78
2022-12-28T05:58:16.119Z,5.75
2022-12-28T06:02:23.053Z,5.74
2022-12-28T06:06:26.579Z,5.74
2022-12-28T06:10:28.292Z,5.73
2022-12-28T06:14:29.826Z,5.73
2022-12-28T06:18:31.473Z,5.74
2022-12-28T06:22:33.142Z,5.74
2022-12-28T06:26:36.743Z,5.74
2022-12-28T06:30:38.249Z,5.70
2022-12-28T06:34:39.817Z,5.73
2022-12-28T06:38:41.724Z,5.73
2022-12-28T06:42:43.399Z,5.70
2022-12-28T06:46:45.071Z,5.73
2022-12-28T06:50:57.948Z,5.73
2022-12-28T06:54:59.483Z,5.75
2022-12-28T06:59:03.797Z,5.74
2022-12-28T07:03:05.766Z,5.74
2022-12-28T07:07:09.202Z,5.73
2022-12-28T07:11:19.463Z,5.70
2022-12-28T07:15:21.024Z,5.69
2022-12-28T07:19:22.573Z,5.73
2022-12-28T07:23:25.692Z,5.74
2022-12-28T07:27:27.194Z,5.78
2022-12-28T07:31:41.737Z,5.77
2022-12-28T07:35:46.310Z,5.75
2022-12-28T07:39:47.814Z,5.77
2022-12-28T07:43:50.277Z,5.77
2022-12-28T07:47:51.839Z,5.81
2022-12-28T07:51:53.639Z,5.83
2022-12-28T07:55:59.351Z,5.85
2022-12-28T08:00:00.978Z,5.87
2022-12-28T08:04:05.002Z,5.90
2022-12-28T08:08:06.563Z,5.93
2022-12-28T08:12:08.173Z,5.96
2022-12-28T08:16:11.930Z,5.99
2022-12-28T08:20:13.550Z,6.01
2022-12-28T08:24:17.381Z,6.03
2022-12-28T08:28:18.916Z,6.06
2022-12-28T08:32:20.452Z,6.11
2022-12-28T08:36:22.353Z,6.16
2022-12-28T08:40:27.605Z,6.19
2022-12-28T08:44:29.221Z,6.20
2022-12-28T08:48:31.795Z,6.21
2022-12-28T08:52:33.339Z,6.25
2022-12-28T08:56:37.387Z,6.27
2022-12-28T09:00:39.070Z,6.33
2022-12-28T09:04:41.091Z,6.38
2022-12-28T09:08:56.793Z,6.43
2022-12-28T09:13:04.456Z,6.48
2022-12-28T09:17:06.092Z,6.51
2022-12-28T09:21:10.422Z,6.55
2022-12-28T09:25:12.020Z,6.61
2022-12-28T09:29:14.156Z,6.68
2022-12-28T09:33:45.425Z,6.78
2022-12-28T09:37:56.107Z,6.86
2022-12-28T09:42:11.466Z,6.96
2022-12-28T09:46:16.356Z,7.08
2022-12-28T09:50:21.734Z,7.11
2022-12-28T09:54:23.474Z,7.14
2022-12-28T09:58:25.114Z,7.15
2022-12-28T10:02:32.986Z,7.18
2022-12-28T10:06:36.769Z,7.24
2022-12-28T10:10:43.965Z,7.33
2022-12-28T10:14:49.297Z,7.41
2022-12-28T10:18:50.930Z,7.51
2022-12-28T10:22:56.395Z,7.62
2022-12-28T10:26:59.805Z,7.71
2022-12-28T10:31:10.481Z,7.79
2022-12-28T10:35:23.979Z,7.85
2022-12-28T10:39:28.782Z,7.89
2022-12-28T10:43:37.066Z,7.95
2022-12-28T10:47:44.522Z,8.04
2022-12-28T10:52:32.955Z,8.20
2022-12-28T10:56:47.974Z,8.43
2022-12-28T11:01:00.677Z,8.67
2022-12-28T11:05:04.592Z,8.88
2022-12-28T11:09:23.082Z,9.10
2022-12-28T11:13:24.671Z,9.30
2022-12-28T11:17:28.531Z,9.45
2022-12-28T11:21:31.544Z,9.59
2022-12-28T11:25:35.285Z,9.68
2022-12-28T11:29:47.700Z,9.75
2022-12-28T11:33:54.392Z,9.80
2022-12-28T11:38:00.464Z,9.77
2022-12-28T11:42:37.096Z,9.77
2022-12-28T11:46:23.929Z,9.77
2022-12-28T11:50:34.643Z,9.80
2022-12-28T11:54:39.499Z,9.80
2022-12-28T11:58:41.008Z,9.83
2022-12-28T12:02:51.330Z,9.83
2022-12-28T12:06:53.467Z,9.86
2022-12-28T12:11:21.759Z,9.91
2022-12-28T12:15:39.144Z,9.92
2022-12-28T12:19:47.904Z,9.95
2022-12-28T12:23:53.931Z,9.98
2022-12-28T12:27:59.216Z,10.02
2022-12-28T12:32:19.387Z,10.02
2022-12-28T12:37:06.114Z,10.07
2022-12-28T12:41:19.512Z,10.11
2022-12-28T12:45:58.712Z,10.17
2022-12-28T12:50:29.188Z,10.24
2022-12-28T12:54:52.350Z,10.26
2022-12-28T12:59:21.365Z,10.24
2022-12-28T13:03:54.101Z,10.14
2022-12-28T13:08:00.468Z,10.13
2022-12-28T13:12:02.775Z,10.10
2022-12-28T13:16:09.938Z,10.04
2022-12-28T13:20:20.934Z,10.02
2022-12-28T13:24:27.536Z,9.96
2022-12-28T13:28:35.735Z,9.93
2022-12-28T13:32:38.589Z,9.89
2022-12-28T13:36:59.875Z,9.88
2022-12-28T13:41:03.100Z,9.81
2022-12-28T13:45:09.828Z,9.81
2022-12-28T13:49:13.025Z,9.77
2022-12-28T13:53:20.600Z,9.77
2022-12-28T14:01:50.160Z,9.89
2022-12-28T14:05:55.168Z,9.85
2022-12-28T14:09:57.175Z,9.81
2022-12-28T14:13:58.843Z,9.81
2022-12-28T14:18:00.900Z,9.80
2022-12-28T14:22:02.756Z,9.80
2022-12-28T14:26:20.386Z,10.09
2022-12-28T14:30:28.469Z,10.09
2022-12-28T14:34:33.315Z,10.06
2022-12-28T14:38:39.924Z,9.95
2022-12-28T14:42:41.734Z,9.86
2022-12-28T14:46:43.504Z,9.77
2022-12-28T14:50:57.069Z,9.71
2022-12-28T14:54:58.733Z,9.65
2022-12-28T14:59:01.367Z,9.59
2022-12-28T15:03:20.636Z,9.53
2022-12-28T15:07:22.238Z,9.52
2022-12-28T15:11:25.974Z,9.42
2022-12-28T15:15:27.662Z,9.34
2022-12-28T15:19:29.291Z,9.30
2022-12-28T15:23:31.016Z,9.26
2022-12-28T15:27:32.633Z,9.24
2022-12-28T15:31:34.223Z,9.23
2022-12-28T15:35:35.986Z,9.22
2022-12-28T15:39:37.649Z,9.19
2022-12-28T15:43:39.325Z,9.16
2022-12-28T15:47:40.953Z,9.13
2022-12-28T15:51:43.173Z,9.13
2022-12-28T15:55:44.771Z,9.12
2022-12-28T15:59:46.462Z,9.08
2022-12-28T16:03:52.516Z,9.03
2022-12-28T16:07:54.154Z,9.00
2022-12-28T16:11:55.824Z,8.98
2022-12-28T16:16:03.640Z,8.98
2022-12-28T16:20:05.726Z,8.96
2022-12-28T16:24:07.604Z,8.93
2022-12-28T16:28:09.160Z,8.91
2022-12-28T16:32:10.738Z,8.93
2022-12-28T16:36:12.750Z,8.97
2022-12-28T16:40:14.447Z,8.98
2022-12-28T16:44:21.385Z,8.88
2022-12-28T16:48:23.059Z,8.86
2022-12-28T16:52:24.581Z,8.85
2022-12-28T16:56:26.176Z,8.83
2022-12-28T17:00:27.695Z,8.82
2022-12-28T17:04:29.286Z,8.83
2022-12-28T17:08:31.197Z,8.85
2022-12-28T17:12:32.817Z,8.85
2022-12-28T17:16:34.624Z,8.85
2022-12-28T17:20:37.319Z,8.85
2022-12-28T17:24:39.119Z,8.82
2022-12-28T17:28:40.707Z,8.78
2022-12-28T17:32:42.315Z,8.76
2022-12-28T17:36:43.896Z,8.75
2022-12-28T17:40:45.457Z,8.71
2022-12-28T17:44:48.427Z,8.71
2022-12-28T17:48:55.185Z,8.71
2022-12-28T17:52:58.658Z,8.75
2022-12-28T17:57:00.412Z,8.75
2022-12-28T18:01:02.627Z,8.75
2022-12-28T18:05:04.626Z,8.73
2022-12-28T18:09:06.244Z,8.70
2022-12-28T18:13:07.995Z,8.68
2022-12-28T18:17:09.622Z,8.70
2022-12-28T18:21:20.796Z,8.67
2022-12-28T18:25:22.993Z,8.67
2022-12-28T18:29:24.708Z,8.68
2022-12-28T18:33:26.411Z,8.71
2022-12-28T18:37:28.038Z,8.71
2022-12-28T18:41:33.933Z,8.70
2022-12-28T18:45:36.026Z,8.71
2022-12-28T18:49:40.217Z,8.68
2022-12-28T18:53:45.946Z,8.65
2022-12-28T18:57:47.559Z,8.63
2022-12-28T19:02:06.455Z,8.64
2022-12-28T19:06:09.479Z,8.61
2022-12-28T19:10:13.045Z,8.60
2022-12-28T19:14:15.795Z,8.57
2022-12-28T19:18:17.358Z,8.57
2022-12-28T19:22:18.938Z,8.57
2022-12-28T19:26:21.279Z,8.55
2022-12-28T19:30:23.607Z,8.54
2022-12-28T19:34:25.183Z,8.49
2022-12-28T19:38:27.392Z,8.47
2022-12-28T19:42:29.157Z,8.43
2022-12-28T19:46:31.486Z,8.40
2022-12-28T19:50:33.220Z,8.40
2022-12-28T19:54:34.888Z,8.42
2022-12-28T19:58:38.966Z,8.43
2022-12-28T20:02:40.687Z,8.42
2022-12-28T20:06:43.685Z,8.39
2022-12-28T20:10:45.206Z,8.37
2022-12-28T20:14:46.870Z,8.37
2022-12-28T20:18:49.754Z,8.36
2022-12-28T20:22:51.278Z,8.34
2022-12-28T20:26:57.964Z,8.34
2022-12-28T20:31:05.330Z,8.34
2022-12-28T20:35:07.141Z,8.37
2022-12-28T20:39:08.800Z,8.37
2022-12-28T20:43:25.181Z,8.40
2022-12-28T20:47:27.041Z,8.43
2022-12-28T20:51:29.029Z,8.42
2022-12-28T20:55:30.613Z,8.45
2022-12-28T20:59:33.469Z,8.43
2022-12-28T21:03:35.139Z,8.45
2022-12-28T21:07:36.765Z,8.45
2022-12-28T21:11:38.397Z,8.43
2022-12-28T21:15:40.860Z,8.43
2022-12-28T21:19:42.434Z,8.47
2022-12-28T21:23:44.404Z,8.52
2022-12-28T21:27:46.011Z,8.52
2022-12-28T21:31:47.752Z,8.55
2022-12-28T21:36:00.214Z,8.58
2022-12-28T21:40:07.071Z,8.61
2022-12-28T21:44:11.657Z,8.67
2022-12-28T21:48:13.199Z,8.67
2022-12-28T21:52:14.737Z,8.70
2022-12-28T21:56:16.276Z,8.71
2022-12-28T22:00:36.779Z,8.78
2022-12-28T22:05:02.116Z,8.83
2022-12-28T22:09:22.924Z,8.86
2022-12-28T22:13:24.524Z,8.88
2022-12-28T22:17:26.042Z,8.93
2022-12-28T22:21:28.356Z,8.96
2022-12-28T22:25:30.922Z,8.96
2022-12-28T22:29:32.599Z,9.00
2022-12-28T22:33:34.446Z,9.01
2022-12-28T22:37:36.461Z,9.06
2022-12-28T22:41:38.041Z,9.10
2022-12-28T22:45:39.812Z,9.10
2022-12-28T22:49:41.443Z,9.12
2022-12-28T22:53:43.617Z,9.17
2022-12-28T22:57:45.275Z,9.19
2022-12-28T23:01:48.282Z,9.23
2022-12-28T23:05:52.925Z,9.30
2022-12-28T23:09:54.596Z,9.37
2022-12-28T23:14:17.750Z,9.41
2022-12-28T23:18:37.572Z,9.50
2022-12-28T23:23:11.224Z,9.56
2022-12-28T23:27:21.619Z,9.60
2022-12-28T23:31:23.225Z,9.62
2022-12-28T23:35:26.268Z,9.63
2022-12-28T23:39:27.825Z,9.62
2022-12-28T23:43:29.387Z,9.62
2022-12-28T23:47:31.206Z,9.75
2022-12-28T23:51:32.827Z,9.86
2022-12-28T23:55:35.606Z,9.89
2022-12-28T23:59:37.192Z,9.92
